Silver Cloud — C6MQ5 — position and weather

sailwx.info

Track history (hours):
 
Tides and Currents Weather Stations Pressure Air Temp Water Temp Dewpoint Dewpoint Depression Visibility Wind Speed Wind Dir Waves Ship Positions

Silver Cloud

Operator: V Ships Leisure SAM

Last reported at 2019-Aug-07 04:25 UTC. Time now 2019-Aug-20 09:45 UTC.
Position N 64°38' W 014°02'.
Warning: this ship's position is 13 days out of date.

Length 156 m; draft 5.7 m.

Type: Passenger vessel. MMSI: 309027000.

Date/timePositionNaut miles runAvg speedWind from/ knotsBaromVisibWave heightAir tempDewpointWater temp
2019-Aug-07 04:25N 64°38' W 014°02'  
2019-Jul-29 20:29N 77°17' E 010°22'713.5
2019-Jul-29 20:00N 77°22' E 010°40'713.5
2019-Jul-29 19:30N 77°27' E 010°59'713.8
2019-Jul-29 19:00N 77°33' E 011°19'713.7
2019-Jul-29 18:31N 77°38' E 011°38'713.7
2019-Jul-29 18:00N 77°44' E 011°58'714.4
2019-Jul-29 17:30N 77°49' E 012°19'714.6
2019-Jul-29 17:00N 77°55' E 012°39'714.8
2019-Jul-29 16:30N 78°01' E 013°00'1016.5
2019-Jul-29 15:54N 78°06' E 013°40'717.1
2019-Jul-29 15:29N 78°10' E 014°11'1017.2
2019-Jul-29 14:56N 78°14' E 014°53'716.5
2019-Jul-29 14:30N 78°16' E 015°27'3 5.3
2019-Jul-29 14:00N 78°14' E 015°37'2 4.2
2019-Jul-29 13:26N 78°16' E 015°28'3 7.2
2019-Jul-29 13:00N 78°16' E 015°13'3 6.4
2019-Jul-29 12:30N 78°15' E 014°59'4 6.8
2019-Jul-29 11:59N 78°13' E 014°42'3 6.9
2019-Jul-29 11:30N 78°12' E 014°27'3 6.2
2019-Jul-29 11:00N 78°12' E 014°13'3 5.6
2019-Jul-29 10:26N 78°13' E 013°59'1 1.1
2019-Jul-29 10:00N 78°13' E 013°57'1 1.8
2019-Jul-29 09:25N 78°14' E 013°52'0 0.1
2019-Jul-29 08:53N 78°14' E 013°51'0 0.2
2019-Jul-29 08:28N 78°13' E 013°51'0 0.2
2019-Jul-29 07:59N 78°14' E 013°51'0 0.0
2019-Jul-29 07:30N 78°14' E 013°51'0 0.1
2019-Jul-29 07:00N 78°13' E 013°51'0 0.0
2019-Jul-29 06:30N 78°13' E 013°51'0 0.2
2019-Jul-29 05:51N 78°13' E 013°52'0 0.1
2019-Jul-29 05:30N 78°13' E 013°52'0 0.1
2019-Jul-29 05:00N 78°14' E 013°52'2 3.7
2019-Jul-29 04:30N 78°12' E 013°52'4 7.8
2019-Jul-29 04:00N 78°09' E 013°37'4 8.2
2019-Jul-29 03:29N 78°07' E 013°19'4 9.0
2019-Jul-29 03:00N 78°07' E 012°58'1010.2
2019-Jul-29 02:00N 78°07' E 012°08'5 8.9
2019-Jul-29 01:29N 78°08' E 011°46'4 9.0
2019-Jul-29 01:00N 78°11' E 011°30'4 9.1
2019-Jul-29 00:30N 78°14' E 011°17'5 9.5
2019-Jul-28 23:56N 78°19' E 011°01'4 9.6
2019-Jul-28 23:30N 78°22' E 010°49'5 9.0
2019-Jul-28 22:54N 78°27' E 010°34'4 9.1
2019-Jul-28 22:25N 78°31' E 010°28'4 9.2
2019-Jul-28 21:57N 78°35' E 010°22'13 9.2
2019-Jul-28 20:29N 78°48' E 010°00'4 9.1
2019-Jul-28 20:00N 78°52' E 010°03'5 8.9
2019-Jul-28 19:27N 78°56' E 010°19'4 9.3
2019-Jul-28 19:00N 78°58' E 010°39'611.0
2019-Jul-28 18:27N 78°60' E 011°09'817.0
2019-Jul-28 18:00N 78°58' E 011°48'3 6.0
2019-Jul-28 17:30N 78°57' E 012°03'0 0.0
2019-Jul-28 17:00N 78°57' E 012°03'0 0.0
2019-Jul-28 16:30N 78°57' E 012°03'0 0.0
2019-Jul-28 16:00N 78°57' E 012°03'0 0.0
2019-Jul-28 15:30N 78°57' E 012°03'0 0.0
2019-Jul-28 15:00N 78°57' E 012°03'0 0.0
2019-Jul-28 14:30N 78°57' E 012°03'0 0.0
2019-Jul-28 14:00N 78°57' E 012°03'0 0.0
2019-Jul-28 13:30N 78°57' E 012°03'0 0.1
2019-Jul-28 13:00N 78°57' E 012°03'2 3.8
2019-Jul-28 12:30N 78°58' E 011°53'612.3
2019-Jul-28 12:00N 79°02' E 011°33'611.0
2019-Jul-28 11:28N 79°08' E 011°48'0 0.4
2019-Jul-28 10:58N 79°08' E 011°49'0 0.0
2019-Jul-28 10:22N 79°08' E 011°49'0 0.1
2019-Jul-28 09:58N 79°08' E 011°49'0 0.1
2019-Jul-28 09:28N 79°08' E 011°49'0 0.1
2019-Jul-28 08:58N 79°08' E 011°48'0 0.0
2019-Jul-28 08:22N 79°08' E 011°48'0 0.0
2019-Jul-28 07:58N 79°08' E 011°48'0 0.0
2019-Jul-28 07:28N 79°08' E 011°48'0 0.0
2019-Jul-28 06:55N 79°08' E 011°48'0 0.0
2019-Jul-28 06:28N 79°08' E 011°48'0 0.0
2019-Jul-28 05:58N 79°08' E 011°48'0 0.0
2019-Jul-28 05:22N 79°08' E 011°48'0 0.0
2019-Jul-28 04:55N 79°08' E 011°48'0 0.6
2019-Jul-28 04:30N 79°08' E 011°47'  
Track history (hours):
 
Tides and Currents Weather Stations Pressure Air Temp Water Temp Dewpoint Dewpoint Depression Visibility Wind Speed Wind Dir Waves Ship Positions

Silver Cloud

Operator: V Ships Leisure SAM

Last reported at 2019-Aug-07 04:25 UTC. Time now 2019-Aug-20 09:45 UTC.
Position N 64°38' W 014°02'.
Warning: this ship's position is 13 days out of date.

Length 156 m; draft 5.7 m.

Type: Passenger vessel. MMSI: 309027000.

Date/timePositionNaut miles runAvg speedWind from/ knotsBaromVisibWave heightAir tempDewpointWater temp
2019-Aug-07 04:25N 64°38' W 014°02'  
2019-Jul-29 20:29N 77°17' E 010°22'713.5
2019-Jul-29 20:00N 77°22' E 010°40'713.5
2019-Jul-29 19:30N 77°27' E 010°59'713.8
2019-Jul-29 19:00N 77°33' E 011°19'713.7
2019-Jul-29 18:31N 77°38' E 011°38'713.7
2019-Jul-29 18:00N 77°44' E 011°58'714.4
2019-Jul-29 17:30N 77°49' E 012°19'714.6
2019-Jul-29 17:00N 77°55' E 012°39'714.8
2019-Jul-29 16:30N 78°01' E 013°00'1016.5
2019-Jul-29 15:54N 78°06' E 013°40'717.1
2019-Jul-29 15:29N 78°10' E 014°11'1017.2
2019-Jul-29 14:56N 78°14' E 014°53'716.5
2019-Jul-29 14:30N 78°16' E 015°27'3 5.3
2019-Jul-29 14:00N 78°14' E 015°37'2 4.2
2019-Jul-29 13:26N 78°16' E 015°28'3 7.2
2019-Jul-29 13:00N 78°16' E 015°13'3 6.4
2019-Jul-29 12:30N 78°15' E 014°59'4 6.8
2019-Jul-29 11:59N 78°13' E 014°42'3 6.9
2019-Jul-29 11:30N 78°12' E 014°27'3 6.2
2019-Jul-29 11:00N 78°12' E 014°13'3 5.6
2019-Jul-29 10:26N 78°13' E 013°59'1 1.1
2019-Jul-29 10:00N 78°13' E 013°57'1 1.8
2019-Jul-29 09:25N 78°14' E 013°52'0 0.1
2019-Jul-29 08:53N 78°14' E 013°51'0 0.2
2019-Jul-29 08:28N 78°13' E 013°51'0 0.2
2019-Jul-29 07:59N 78°14' E 013°51'0 0.0
2019-Jul-29 07:30N 78°14' E 013°51'0 0.1
2019-Jul-29 07:00N 78°13' E 013°51'0 0.0
2019-Jul-29 06:30N 78°13' E 013°51'0 0.2
2019-Jul-29 05:51N 78°13' E 013°52'0 0.1
2019-Jul-29 05:30N 78°13' E 013°52'0 0.1
2019-Jul-29 05:00N 78°14' E 013°52'2 3.7
2019-Jul-29 04:30N 78°12' E 013°52'4 7.8
2019-Jul-29 04:00N 78°09' E 013°37'4 8.2
2019-Jul-29 03:29N 78°07' E 013°19'4 9.0
2019-Jul-29 03:00N 78°07' E 012°58'1010.2
2019-Jul-29 02:00N 78°07' E 012°08'5 8.9
2019-Jul-29 01:29N 78°08' E 011°46'4 9.0
2019-Jul-29 01:00N 78°11' E 011°30'4 9.1
2019-Jul-29 00:30N 78°14' E 011°17'5 9.5
2019-Jul-28 23:56N 78°19' E 011°01'4 9.6
2019-Jul-28 23:30N 78°22' E 010°49'5 9.0
2019-Jul-28 22:54N 78°27' E 010°34'4 9.1
2019-Jul-28 22:25N 78°31' E 010°28'4 9.2
2019-Jul-28 21:57N 78°35' E 010°22'13 9.2
2019-Jul-28 20:29N 78°48' E 010°00'4 9.1
2019-Jul-28 20:00N 78°52' E 010°03'5 8.9
2019-Jul-28 19:27N 78°56' E 010°19'4 9.3
2019-Jul-28 19:00N 78°58' E 010°39'611.0
2019-Jul-28 18:27N 78°60' E 011°09'817.0
2019-Jul-28 18:00N 78°58' E 011°48'3 6.0
2019-Jul-28 17:30N 78°57' E 012°03'0 0.0
2019-Jul-28 17:00N 78°57' E 012°03'0 0.0
2019-Jul-28 16:30N 78°57' E 012°03'0 0.0
2019-Jul-28 16:00N 78°57' E 012°03'0 0.0
2019-Jul-28 15:30N 78°57' E 012°03'0 0.0
2019-Jul-28 15:00N 78°57' E 012°03'0 0.0
2019-Jul-28 14:30N 78°57' E 012°03'0 0.0
2019-Jul-28 14:00N 78°57' E 012°03'0 0.0
2019-Jul-28 13:30N 78°57' E 012°03'0 0.1
2019-Jul-28 13:00N 78°57' E 012°03'2 3.8
2019-Jul-28 12:30N 78°58' E 011°53'612.3
2019-Jul-28 12:00N 79°02' E 011°33'611.0
2019-Jul-28 11:28N 79°08' E 011°48'0 0.4
2019-Jul-28 10:58N 79°08' E 011°49'0 0.0
2019-Jul-28 10:22N 79°08' E 011°49'0 0.1
2019-Jul-28 09:58N 79°08' E 011°49'0 0.1
2019-Jul-28 09:28N 79°08' E 011°49'0 0.1
2019-Jul-28 08:58N 79°08' E 011°48'0 0.0
2019-Jul-28 08:22N 79°08' E 011°48'0 0.0
2019-Jul-28 07:58N 79°08' E 011°48'0 0.0
2019-Jul-28 07:28N 79°08' E 011°48'0 0.0
2019-Jul-28 06:55N 79°08' E 011°48'0 0.0
2019-Jul-28 06:28N 79°08' E 011°48'0 0.0
2019-Jul-28 05:58N 79°08' E 011°48'0 0.0
2019-Jul-28 05:22N 79°08' E 011°48'0 0.0
2019-Jul-28 04:55N 79°08' E 011°48'0 0.6
2019-Jul-28 04:30N 79°08' E 011°47'  

Dump ship's entire track history